KEKN/EKN METAR and TAF weather

Enter ICAO airport designator
Station Type Date Time Source
KEKN METAR 2020/09/22 07:51 UTC NOAA

KEKN 220751Z AUTO 00000KT 3/4SM BR VV001 03/02 A3035 RMK AO2 SLP282 T00280017


Station Type Date Time Source
KEKN Decoded METAR 2020/09/22 07:51 UTC NOAA

JENNINGS RANDOLPH FIELD, WV, United States (KEKN) 38-53N 079-51W 603M
Sep 22, 2020 - 03:51 AM EDT / 2020.09.22 0751 UTC
Wind: Calm:0
Visibility: 3/4 mile(s):0
Sky conditions: obscured
Weather: mist
Temperature: 37.0 F (2.8 C)
Dew Point: 35.1 F (1.7 C)
Relative Humidity: 92%
Pressure (altimeter): 30.35 in. Hg (1027 hPa)
ob: KEKN 220751Z AUTO 00000KT 3/4SM BR VV001 03/02 A3035 RMK AO2 SLP282 T00280017
cycle: 8

Station Type Date Time Source
KEKN TAF 2020/09/22 06:33 UTC NOAA

TAF KEKN 220530Z 2206/2306 00000KT 4SM BR BKN001
FM220700 00000KT 3/4SM BR OVC001
FM221300 00000KT 3SM BR SCT001
FM221400 31005KT P6SM SCT250

Example: see airport list